sensor_id;sensor_type;location;lat;lon;timestamp;pressure;altitude;pressure_sealevel;temperature;humidity
54306;BME280;66145;45.188;5.712;2023-01-29T00:00:49;99928.69;;;11.07;50.51
54306;BME280;66145;45.188;5.712;2023-01-29T00:03:15;99954.94;;;11.24;49.93
54306;BME280;66145;45.188;5.712;2023-01-29T00:05:41;99971.88;;;11.31;50.40
54306;BME280;66145;45.188;5.712;2023-01-29T00:08:06;99941.75;;;11.10;49.63
54306;BME280;66145;45.188;5.712;2023-01-29T00:10:32;99950.84;;;11.21;50.27
54306;BME280;66145;45.188;5.712;2023-01-29T00:12:57;99954.41;;;11.22;49.81
54306;BME280;66145;45.188;5.712;2023-01-29T00:15:22;99961.19;;;11.24;50.13
54306;BME280;66145;45.188;5.712;2023-01-29T00:17:48;99892.84;;;10.83;50.18
54306;BME280;66145;45.188;5.712;2023-01-29T00:20:13;99957.75;;;11.29;49.28
54306;BME280;66145;45.188;5.712;2023-01-29T00:22:39;99961.28;;;11.30;50.24
54306;BME280;66145;45.188;5.712;2023-01-29T00:25:05;99927.63;;;11.08;50.14
54306;BME280;66145;45.188;5.712;2023-01-29T00:27:30;99951.16;;;11.25;50.12
54306;BME280;66145;45.188;5.712;2023-01-29T00:29:56;99947.91;;;11.23;50.31
54306;BME280;66145;45.188;5.712;2023-01-29T00:32:35;99916.97;;;11.02;50.15
54306;BME280;66145;45.188;5.712;2023-01-29T00:35:00;99946.28;;;11.22;50.01
54306;BME280;66145;45.188;5.712;2023-01-29T00:37:26;99947.06;;;11.22;50.38
54306;BME280;66145;45.188;5.712;2023-01-29T00:39:51;99948.22;;;11.26;50.51
54306;BME280;66145;45.188;5.712;2023-01-29T00:42:16;99956.69;;;11.30;50.57
54306;BME280;66145;45.188;5.712;2023-01-29T00:45:00;99954.81;;;11.31;50.25
54306;BME280;66145;45.188;5.712;2023-01-29T00:47:25;99941.41;;;11.24;50.57
54306;BME280;66145;45.188;5.712;2023-01-29T00:50:01;99918.44;;;11.09;50.34
54306;BME280;66145;45.188;5.712;2023-01-29T00:52:27;99923.03;;;11.09;50.34
54306;BME280;66145;45.188;5.712;2023-01-29T00:54:55;99928.38;;;11.04;50.50
54306;BME280;66145;45.188;5.712;2023-01-29T00:57:23;99950.69;;;11.28;50.38
54306;BME280;66145;45.188;5.712;2023-01-29T00:59:48;99957.75;;;11.29;50.53
54306;BME280;66145;45.188;5.712;2023-01-29T01:02:14;99946.19;;;11.17;50.01
54306;BME280;66145;45.188;5.712;2023-01-29T01:04:58;99959.28;;;11.25;49.67
54306;BME280;66145;45.188;5.712;2023-01-29T01:07:23;99968.25;;;11.25;50.02
54306;BME280;66145;45.188;5.712;2023-01-29T01:09:49;99893.84;;;10.77;50.60
54306;BME280;66145;45.188;5.712;2023-01-29T01:12:32;99949.78;;;11.22;50.54
54306;BME280;66145;45.188;5.712;2023-01-29T01:14:58;99961.53;;;11.28;50.28
54306;BME280;66145;45.188;5.712;2023-01-29T01:17:24;99943.63;;;11.10;49.93
54306;BME280;66145;45.188;5.712;2023-01-29T01:19:49;99979.19;;;11.31;49.93
54306;BME280;66145;45.188;5.712;2023-01-29T01:22:15;99946.34;;;11.10;50.28
54306;BME280;66145;45.188;5.712;2023-01-29T01:24:40;99951.28;;;11.13;49.93
54306;BME280;66145;45.188;5.712;2023-01-29T01:27:06;99940.44;;;11.13;49.88
54306;BME280;66145;45.188;5.712;2023-01-29T01:29:31;99953.41;;;11.11;50.38
54306;BME280;66145;45.188;5.712;2023-01-29T01:31:57;99944.38;;;11.05;50.31
54306;BME280;66145;45.188;5.712;2023-01-29T01:34:23;99976.63;;;11.24;50.58
54306;BME280;66145;45.188;5.712;2023-01-29T01:36:51;99990.50;;;11.28;49.87
54306;BME280;66145;45.188;5.712;2023-01-29T01:39:16;99964.97;;;11.23;50.36
54306;BME280;66145;45.188;5.712;2023-01-29T01:41:41;99983.19;;;11.28;50.61
54306;BME280;66145;45.188;5.712;2023-01-29T01:47:11;99993.22;;;11.28;50.17
54306;BME280;66145;45.188;5.712;2023-01-29T01:49:37;99988.59;;;11.28;50.77
54306;BME280;66145;45.188;5.712;2023-01-29T01:52:03;99983.94;;;11.23;50.83
54306;BME280;66145;45.188;5.712;2023-01-29T01:54:30;99985.25;;;11.21;50.44
54306;BME280;66145;45.188;5.712;2023-01-29T01:56:59;99927.03;;;10.89;50.79
54306;BME280;66145;45.188;5.712;2023-01-29T01:59:35;99980.25;;;11.30;50.56
54306;BME280;66145;45.188;5.712;2023-01-29T02:02:02;99984.03;;;11.29;49.78
54306;BME280;66145;45.188;5.712;2023-01-29T02:04:47;99978.59;;;11.29;50.15
54306;BME280;66145;45.188;5.712;2023-01-29T02:07:31;99987.53;;;11.29;50.38
54306;BME280;66145;45.188;5.712;2023-01-29T02:10:17;99986.16;;;11.26;50.61
54306;BME280;66145;45.188;5.712;2023-01-29T02:12:43;99897.59;;;10.76;50.21
54306;BME280;66145;45.188;5.712;2023-01-29T02:15:09;99950.94;;;11.09;50.18
54306;BME280;66145;45.188;5.712;2023-01-29T02:17:35;99977.69;;;11.23;50.50
54306;BME280;66145;45.188;5.712;2023-01-29T02:20:17;99978.03;;;11.26;50.44
54306;BME280;66145;45.188;5.712;2023-01-29T02:31:28;100012.16;;;11.28;50.47
54306;BME280;66145;45.188;5.712;2023-01-29T02:36:40;100015.69;;;11.28;50.94
54306;BME280;66145;45.188;5.712;2023-01-29T02:44:16;100026.53;;;11.28;50.44
54306;BME280;66145;45.188;5.712;2023-01-29T02:46:51;100023.00;;;11.28;50.05
54306;BME280;66145;45.188;5.712;2023-01-29T02:49:30;100028.41;;;11.28;50.00
54306;BME280;66145;45.188;5.712;2023-01-29T02:52:04;100027.34;;;11.29;50.77
54306;BME280;66145;45.188;5.712;2023-01-29T02:54:53;100027.59;;;11.27;50.61
54306;BME280;66145;45.188;5.712;2023-01-29T02:57:33;100011.66;;;11.14;50.74
54306;BME280;66145;45.188;5.712;2023-01-29T03:00:09;99988.19;;;11.02;50.16
54306;BME280;66145;45.188;5.712;2023-01-29T03:02:47;100002.03;;;11.06;50.48
54306;BME280;66145;45.188;5.712;2023-01-29T03:05:22;100023.41;;;11.19;50.46
54306;BME280;66145;45.188;5.712;2023-01-29T03:07:54;100033.59;;;11.29;50.63
54306;BME280;66145;45.188;5.712;2023-01-29T03:10:26;100036.19;;;11.24;50.58
54306;BME280;66145;45.188;5.712;2023-01-29T03:13:05;100051.16;;;11.26;50.27
54306;BME280;66145;45.188;5.712;2023-01-29T03:15:38;100044.56;;;11.22;50.42
54306;BME280;66145;45.188;5.712;2023-01-29T03:18:27;100066.09;;;11.29;50.30
54306;BME280;66145;45.188;5.712;2023-01-29T03:20:59;100047.88;;;11.24;50.73
54306;BME280;66145;45.188;5.712;2023-01-29T03:23:31;100056.31;;;11.28;50.67
54306;BME280;66145;45.188;5.712;2023-01-29T03:26:19;100031.84;;;11.06;50.62
54306;BME280;66145;45.188;5.712;2023-01-29T03:29:05;100057.97;;;11.29;50.01
54306;BME280;66145;45.188;5.712;2023-01-29T03:31:52;100030.28;;;11.10;50.66
54306;BME280;66145;45.188;5.712;2023-01-29T03:34:29;100046.69;;;11.20;50.79
54306;BME280;66145;45.188;5.712;2023-01-29T03:37:09;100057.16;;;11.29;50.17
54306;BME280;66145;45.188;5.712;2023-01-29T03:39:38;100044.16;;;11.14;50.48
54306;BME280;66145;45.188;5.712;2023-01-29T03:47:45;100062.00;;;11.26;50.52
54306;BME280;66145;45.188;5.712;2023-01-29T03:57:57;100077.97;;;11.28;50.70
54306;BME280;66145;45.188;5.712;2023-01-29T04:00:44;100083.19;;;11.30;50.41
54306;BME280;66145;45.188;5.712;2023-01-29T04:03:20;100084.81;;;11.31;50.60
54306;BME280;66145;45.188;5.712;2023-01-29T04:05:55;100057.03;;;11.06;50.38
54306;BME280;66145;45.188;5.712;2023-01-29T04:08:39;100063.09;;;11.14;50.34
54306;BME280;66145;45.188;5.712;2023-01-29T04:11:12;100090.47;;;11.29;50.20
54306;BME280;66145;45.188;5.712;2023-01-29T04:13:39;100082.75;;;11.21;50.74
54306;BME280;66145;45.188;5.712;2023-01-29T04:16:07;100095.06;;;11.29;50.60
54306;BME280;66145;45.188;5.712;2023-01-29T04:18:34;100100.50;;;11.29;50.52
54306;BME280;66145;45.188;5.712;2023-01-29T04:21:00;100067.63;;;11.08;50.62
54306;BME280;66145;45.188;5.712;2023-01-29T04:23:26;100033.53;;;10.95;50.77
54306;BME280;66145;45.188;5.712;2023-01-29T04:28:54;100100.50;;;11.29;50.56
54306;BME280;66145;45.188;5.712;2023-01-29T04:31:27;100004.03;;;10.64;50.62
54306;BME280;66145;45.188;5.712;2023-01-29T04:34:18;100097.53;;;11.30;50.46
54306;BME280;66145;45.188;5.712;2023-01-29T04:37:24;100064.16;;;11.13;51.03
54306;BME280;66145;45.188;5.712;2023-01-29T04:40:08;100084.72;;;11.25;50.47
54306;BME280;66145;45.188;5.712;2023-01-29T04:42:43;100047.81;;;11.07;50.22
54306;BME280;66145;45.188;5.712;2023-01-29T04:45:39;100000.44;;;10.76;51.04
54306;BME280;66145;45.188;5.712;2023-01-29T04:49:08;100042.81;;;10.99;50.26
54306;BME280;66145;45.188;5.712;2023-01-29T04:54:19;100037.41;;;10.99;50.41
54306;BME280;66145;45.188;5.712;2023-01-29T04:56:54;100076.59;;;11.25;50.83
54306;BME280;66145;45.188;5.712;2023-01-29T04:59:29;100058.59;;;11.19;49.91
54306;BME280;66145;45.188;5.712;2023-01-29T05:01:59;99994.78;;;10.77;50.33
54306;BME280;66145;45.188;5.712;2023-01-29T05:04:28;99957.81;;;10.54;50.57
54306;BME280;66145;45.188;5.712;2023-01-29T05:06:57;100059.34;;;11.15;50.32
54306;BME280;66145;45.188;5.712;2023-01-29T05:09:25;99981.22;;;10.60;50.51
54306;BME280;66145;45.188;5.712;2023-01-29T05:11:51;100080.47;;;11.30;50.37
54306;BME280;66145;45.188;5.712;2023-01-29T05:14:18;100003.72;;;10.78;50.69
54306;BME280;66145;45.188;5.712;2023-01-29T05:16:51;100074.13;;;11.24;50.63
54306;BME280;66145;45.188;5.712;2023-01-29T05:19:17;100067.13;;;11.11;50.77
54306;BME280;66145;45.188;5.712;2023-01-29T05:21:47;100086.94;;;11.29;50.51
54306;BME280;66145;45.188;5.712;2023-01-29T05:24:19;100083.66;;;11.26;50.97
54306;BME280;66145;45.188;5.712;2023-01-29T05:26:47;100088.81;;;11.28;50.66
54306;BME280;66145;45.188;5.712;2023-01-29T05:29:32;100085.19;;;11.22;50.75
54306;BME280;66145;45.188;5.712;2023-01-29T05:31:57;100057.59;;;11.08;50.18
54306;BME280;66145;45.188;5.712;2023-01-29T05:34:23;100087.75;;;11.29;50.30
54306;BME280;66145;45.188;5.712;2023-01-29T05:36:49;100088.59;;;11.30;50.97
54306;BME280;66145;45.188;5.712;2023-01-29T05:39:14;100095.88;;;11.29;51.28
54306;BME280;66145;45.188;5.712;2023-01-29T05:41:40;100094.97;;;11.23;50.24
54306;BME280;66145;45.188;5.712;2023-01-29T05:44:05;99975.84;;;10.48;50.68
54306;BME280;66145;45.188;5.712;2023-01-29T05:46:31;100086.84;;;11.23;50.59
54306;BME280;66145;45.188;5.712;2023-01-29T05:48:56;100108.34;;;11.30;50.61
54306;BME280;66145;45.188;5.712;2023-01-29T05:51:22;100104.75;;;11.24;50.28
54306;BME280;66145;45.188;5.712;2023-01-29T05:53:47;100098.63;;;11.17;50.43
54306;BME280;66145;45.188;5.712;2023-01-29T05:56:12;100127.31;;;11.30;50.52
54306;BME280;66145;45.188;5.712;2023-01-29T05:58:38;100108.19;;;11.20;50.45
54306;BME280;66145;45.188;5.712;2023-01-29T06:01:08;100067.81;;;10.89;50.70
54306;BME280;66145;45.188;5.712;2023-01-29T06:03:33;100117.59;;;11.17;50.21
54306;BME280;66145;45.188;5.712;2023-01-29T06:06:00;100086.47;;;11.03;50.59
54306;BME280;66145;45.188;5.712;2023-01-29T06:08:26;100107.50;;;11.13;50.67
54306;BME280;66145;45.188;5.712;2023-01-29T06:10:51;100127.13;;;11.20;50.65
54306;BME280;66145;45.188;5.712;2023-01-29T06:13:16;100132.16;;;11.28;50.51
54306;BME280;66145;45.188;5.712;2023-01-29T06:15:42;100139.22;;;11.29;50.49
54306;BME280;66145;45.188;5.712;2023-01-29T06:18:07;100127.03;;;11.15;50.72
54306;BME280;66145;45.188;5.712;2023-01-29T06:20:32;100138.31;;;11.23;50.95
54306;BME280;66145;45.188;5.712;2023-01-29T06:22:58;100061.03;;;10.75;50.25
54306;BME280;66145;45.188;5.712;2023-01-29T06:25:23;100151.25;;;11.21;50.38
54306;BME280;66145;45.188;5.712;2023-01-29T06:27:49;100071.38;;;10.78;50.74
54306;BME280;66145;45.188;5.712;2023-01-29T06:30:15;100058.34;;;10.63;50.63
54306;BME280;66145;45.188;5.712;2023-01-29T06:32:40;100131.13;;;11.17;50.20
54306;BME280;66145;45.188;5.712;2023-01-29T06:35:06;100155.25;;;11.31;50.63
54306;BME280;66145;45.188;5.712;2023-01-29T06:37:32;100080.56;;;10.77;50.50
54306;BME280;66145;45.188;5.712;2023-01-29T06:39:57;100165.50;;;11.29;50.65
54306;BME280;66145;45.188;5.712;2023-01-29T06:42:22;100077.53;;;10.73;50.78
54306;BME280;66145;45.188;5.712;2023-01-29T06:44:55;100139.66;;;11.09;50.98
54306;BME280;66145;45.188;5.712;2023-01-29T06:47:21;100150.34;;;11.16;50.19
54306;BME280;66145;45.188;5.712;2023-01-29T06:49:46;100099.25;;;10.78;50.30
54306;BME280;66145;45.188;5.712;2023-01-29T06:52:11;100189.50;;;11.25;50.82
54306;BME280;66145;45.188;5.712;2023-01-29T06:54:37;100102.72;;;10.62;50.77
54306;BME280;66145;45.188;5.712;2023-01-29T06:57:02;100192.47;;;11.23;50.59
54306;BME280;66145;45.188;5.712;2023-01-29T06:59:28;100195.44;;;11.22;50.67
54306;BME280;66145;45.188;5.712;2023-01-29T07:01:53;100201.31;;;11.19;50.78
54306;BME280;66145;45.188;5.712;2023-01-29T07:04:18;100207.91;;;11.23;49.98
54306;BME280;66145;45.188;5.712;2023-01-29T07:06:44;100234.03;;;11.29;50.62
54306;BME280;66145;45.188;5.712;2023-01-29T07:09:12;100229.34;;;11.24;50.48
54306;BME280;66145;45.188;5.712;2023-01-29T07:11:38;100214.50;;;11.15;50.37
54306;BME280;66145;45.188;5.712;2023-01-29T07:14:04;100234.28;;;11.28;50.12
54306;BME280;66145;45.188;5.712;2023-01-29T07:16:30;100154.44;;;10.77;50.49
54306;BME280;66145;45.188;5.712;2023-01-29T07:18:55;100167.28;;;10.82;50.63
54306;BME280;66145;45.188;5.712;2023-01-29T07:21:20;100238.03;;;11.26;50.50
54306;BME280;66145;45.188;5.712;2023-01-29T07:23:46;100223.22;;;11.17;50.37
54306;BME280;66145;45.188;5.712;2023-01-29T07:26:11;100208.41;;;11.08;50.55
54306;BME280;66145;45.188;5.712;2023-01-29T07:28:37;100212.19;;;11.07;50.53
54306;BME280;66145;45.188;5.712;2023-01-29T07:31:03;100248.63;;;11.28;50.40
54306;BME280;66145;45.188;5.712;2023-01-29T07:33:29;100256.75;;;11.28;50.33
54306;BME280;66145;45.188;5.712;2023-01-29T07:35:54;100240.75;;;11.26;50.35
54306;BME280;66145;45.188;5.712;2023-01-29T07:38:20;100219.38;;;11.13;50.47
54306;BME280;66145;45.188;5.712;2023-01-29T07:40:45;100231.00;;;11.14;50.06
54306;BME280;66145;45.188;5.712;2023-01-29T07:43:11;100238.31;;;11.13;50.81
54306;BME280;66145;45.188;5.712;2023-01-29T07:45:38;100254.78;;;11.23;50.61
54306;BME280;66145;45.188;5.712;2023-01-29T07:48:04;100241.59;;;11.15;50.20
54306;BME280;66145;45.188;5.712;2023-01-29T07:50:31;100228.69;;;11.05;50.42
54306;BME280;66145;45.188;5.712;2023-01-29T07:52:57;100256.66;;;11.23;50.34
54306;BME280;66145;45.188;5.712;2023-01-29T07:55:23;100249.72;;;11.15;50.89
54306;BME280;66145;45.188;5.712;2023-01-29T07:57:55;100179.53;;;10.73;50.06
54306;BME280;66145;45.188;5.712;2023-01-29T08:00:21;100262.09;;;11.23;50.36
54306;BME280;66145;45.188;5.712;2023-01-29T08:02:46;100255.38;;;11.14;50.56
54306;BME280;66145;45.188;5.712;2023-01-29T08:05:12;100250.56;;;11.04;50.45
54306;BME280;66145;45.188;5.712;2023-01-29T08:07:37;100263.88;;;11.05;50.54
54306;BME280;66145;45.188;5.712;2023-01-29T08:10:03;100297.38;;;11.28;50.18
54306;BME280;66145;45.188;5.712;2023-01-29T08:12:29;100260.22;;;11.00;50.15
54306;BME280;66145;45.188;5.712;2023-01-29T08:14:54;100309.53;;;11.25;50.26
54306;BME280;66145;45.188;5.712;2023-01-29T08:17:19;100317.66;;;11.25;50.68
54306;BME280;66145;45.188;5.712;2023-01-29T08:19:45;100322.47;;;11.23;49.87
54306;BME280;66145;45.188;5.712;2023-01-29T08:22:10;100324.94;;;11.25;50.46
54306;BME280;66145;45.188;5.712;2023-01-29T08:24:35;100320.59;;;11.24;50.39
54306;BME280;66145;45.188;5.712;2023-01-29T08:27:00;100314.94;;;11.25;49.89
54306;BME280;66145;45.188;5.712;2023-01-29T08:29:26;100304.84;;;11.21;50.42
54306;BME280;66145;45.188;5.712;2023-01-29T08:31:51;100309.75;;;11.24;50.24
54306;BME280;66145;45.188;5.712;2023-01-29T08:34:16;100295.41;;;11.11;50.37
54306;BME280;66145;45.188;5.712;2023-01-29T08:36:42;100271.53;;;10.97;50.44
54306;BME280;66145;45.188;5.712;2023-01-29T08:39:07;100312.97;;;11.21;50.58
54306;BME280;66145;45.188;5.712;2023-01-29T08:41:33;100311.41;;;11.25;50.07
54306;BME280;66145;45.188;5.712;2023-01-29T08:43:58;100264.81;;;10.99;50.59
54306;BME280;66145;45.188;5.712;2023-01-29T08:46:25;100280.69;;;11.07;50.11
54306;BME280;66145;45.188;5.712;2023-01-29T08:48:50;100304.34;;;11.24;50.62
54306;BME280;66145;45.188;5.712;2023-01-29T08:51:16;100256.69;;;10.99;50.09
54306;BME280;66145;45.188;5.712;2023-01-29T08:53:41;100214.03;;;10.65;50.08
54306;BME280;66145;45.188;5.712;2023-01-29T08:56:07;100255.63;;;11.00;50.26
54306;BME280;66145;45.188;5.712;2023-01-29T08:58:32;100244.47;;;10.97;49.80
54306;BME280;66145;45.188;5.712;2023-01-29T09:01:08;100266.94;;;11.09;50.16
54306;BME280;66145;45.188;5.712;2023-01-29T09:03:34;100198.72;;;10.71;50.15
54306;BME280;66145;45.188;5.712;2023-01-29T09:05:59;100239.16;;;11.02;50.71
54306;BME280;66145;45.188;5.712;2023-01-29T09:08:24;100241.50;;;10.98;50.62
54306;BME280;66145;45.188;5.712;2023-01-29T09:10:50;100269.38;;;11.22;50.64
54306;BME280;66145;45.188;5.712;2023-01-29T09:13:15;100240.56;;;11.04;50.05
54306;BME280;66145;45.188;5.712;2023-01-29T09:15:40;100180.00;;;10.70;50.73
54306;BME280;66145;45.188;5.712;2023-01-29T09:18:06;100248.19;;;11.07;50.57
54306;BME280;66145;45.188;5.712;2023-01-29T09:20:32;100277.50;;;11.22;50.34
54306;BME280;66145;45.188;5.712;2023-01-29T09:22:57;100267.97;;;11.20;50.04
54306;BME280;66145;45.188;5.712;2023-01-29T09:25:23;100268.56;;;11.22;50.35
54306;BME280;66145;45.188;5.712;2023-01-29T09:27:49;100271.84;;;11.24;49.98
54306;BME280;66145;45.188;5.712;2023-01-29T09:30:14;100275.50;;;11.18;50.10
54306;BME280;66145;45.188;5.712;2023-01-29T09:32:40;100278.56;;;11.21;49.90
54306;BME280;66145;45.188;5.712;2023-01-29T09:35:05;100252.22;;;11.05;49.77
54306;BME280;66145;45.188;5.712;2023-01-29T09:37:31;100260.81;;;11.02;49.83
54306;BME280;66145;45.188;5.712;2023-01-29T09:39:56;100300.81;;;11.23;49.90
54306;BME280;66145;45.188;5.712;2023-01-29T09:42:26;100300.81;;;11.23;50.41
54306;BME280;66145;45.188;5.712;2023-01-29T09:45:13;100300.81;;;11.23;50.08
54306;BME280;66145;45.188;5.712;2023-01-29T09:47:39;100290.47;;;11.08;50.36
54306;BME280;66145;45.188;5.712;2023-01-29T09:50:16;100272.34;;;10.97;50.26
54306;BME280;66145;45.188;5.712;2023-01-29T09:55:26;100318.13;;;11.22;50.39
54306;BME280;66145;45.188;5.712;2023-01-29T09:57:58;100229.19;;;10.67;50.29
54306;BME280;66145;45.188;5.712;2023-01-29T10:00:46;100311.06;;;11.21;50.43
54306;BME280;66145;45.188;5.712;2023-01-29T10:03:27;100226.97;;;10.63;50.83
54306;BME280;66145;45.188;5.712;2023-01-29T10:06:22;100316.47;;;11.21;50.33
54306;BME280;66145;45.188;5.712;2023-01-29T10:09:01;100334.38;;;11.22;50.27
54306;BME280;66145;45.188;5.712;2023-01-29T10:11:49;100332.72;;;11.21;50.22
54306;BME280;66145;45.188;5.712;2023-01-29T10:19:54;100243.28;;;10.69;49.94
54306;BME280;66145;45.188;5.712;2023-01-29T10:25:05;100238.00;;;10.62;50.42
54306;BME280;66145;45.188;5.712;2023-01-29T10:27:37;100244.34;;;10.68;50.31
54306;BME280;66145;45.188;5.712;2023-01-29T10:30:17;100311.53;;;11.18;50.61
54306;BME280;66145;45.188;5.712;2023-01-29T10:32:46;100315.66;;;11.21;50.48
54306;BME280;66145;45.188;5.712;2023-01-29T10:35:27;100278.59;;;10.98;50.66
54306;BME280;66145;45.188;5.712;2023-01-29T10:37:55;100310.25;;;11.21;50.02
54306;BME280;66145;45.188;5.712;2023-01-29T10:40:54;100308.59;;;11.20;50.31
54306;BME280;66145;45.188;5.712;2023-01-29T10:43:42;100294.94;;;11.15;49.97
54306;BME280;66145;45.188;5.712;2023-01-29T10:52:31;100297.50;;;11.21;50.76
54306;BME280;66145;45.188;5.712;2023-01-29T10:55:24;100283.97;;;11.21;50.00
54306;BME280;66145;45.188;5.712;2023-01-29T11:00:29;100256.44;;;11.01;50.31
54306;BME280;66145;45.188;5.712;2023-01-29T11:03:27;100249.28;;;10.94;50.03
54306;BME280;66145;45.188;5.712;2023-01-29T11:06:22;100294.59;;;11.23;50.57
54306;BME280;66145;45.188;5.712;2023-01-29T11:08:56;100261.41;;;11.04;50.61
54306;BME280;66145;45.188;5.712;2023-01-29T11:11:33;100192.72;;;10.57;50.39
54306;BME280;66145;45.188;5.712;2023-01-29T11:14:05;100266.81;;;11.04;50.34
54306;BME280;66145;45.188;5.712;2023-01-29T11:16:42;100295.66;;;11.22;50.34
54306;BME280;66145;45.188;5.712;2023-01-29T11:19:09;100288.00;;;11.19;49.91
54306;BME280;66145;45.188;5.712;2023-01-29T11:21:56;100195.88;;;10.66;49.71
54306;BME280;66145;45.188;5.712;2023-01-29T11:24:22;100291.28;;;11.21;49.93
54306;BME280;66145;45.188;5.712;2023-01-29T11:26:49;100283.16;;;11.21;50.58
54306;BME280;66145;45.188;5.712;2023-01-29T11:29:36;100283.97;;;11.21;49.91
54306;BME280;66145;45.188;5.712;2023-01-29T11:32:28;100251.75;;;10.96;50.44
54306;BME280;66145;45.188;5.712;2023-01-29T11:35:20;100259.63;;;11.09;50.57
54306;BME280;66145;45.188;5.712;2023-01-29T11:37:46;100261.25;;;11.10;50.24
54306;BME280;66145;45.188;5.712;2023-01-29T11:42:44;100260.44;;;11.10;49.98
54306;BME280;66145;45.188;5.712;2023-01-29T11:47:52;100287.75;;;11.20;50.51
54306;BME280;66145;45.188;5.712;2023-01-29T11:50:21;100187.19;;;10.52;50.30
54306;BME280;66145;45.188;5.712;2023-01-29T11:52:48;100246.69;;;11.00;50.83
54306;BME280;66145;45.188;5.712;2023-01-29T11:55:22;100250.34;;;10.93;50.80
54306;BME280;66145;45.188;5.712;2023-01-29T11:57:51;100269.84;;;11.19;50.82
54306;BME280;66145;45.188;5.712;2023-01-29T12:00:29;100243.75;;;11.01;50.83
54306;BME280;66145;45.188;5.712;2023-01-29T12:05:24;100267.38;;;11.18;51.37
54306;BME280;66145;45.188;5.712;2023-01-29T12:07:53;100259.25;;;11.18;50.90
54306;BME280;66145;45.188;5.712;2023-01-29T12:13:23;100233.13;;;11.00;51.56
54306;BME280;66145;45.188;5.712;2023-01-29T12:16:07;100257.63;;;11.17;51.38
54306;BME280;66145;45.188;5.712;2023-01-29T12:18:39;100246.06;;;11.09;50.83
54306;BME280;66145;45.188;5.712;2023-01-29T12:21:21;100196.00;;;10.71;50.96
54306;BME280;66145;45.188;5.712;2023-01-29T12:23:59;100267.72;;;11.21;51.15
54306;BME280;66145;45.188;5.712;2023-01-29T12:26:46;100257.38;;;11.18;50.87
54306;BME280;66145;45.188;5.712;2023-01-29T12:30:03;100266.41;;;11.24;50.44
54306;BME280;66145;45.188;5.712;2023-01-29T12:35:35;100179.53;;;10.61;50.78
54306;BME280;66145;45.188;5.712;2023-01-29T12:38:09;100258.78;;;11.21;50.52
54306;BME280;66145;45.188;5.712;2023-01-29T12:40:43;100260.44;;;11.22;50.90
54306;BME280;66145;45.188;5.712;2023-01-29T12:43:26;100257.38;;;11.18;51.10
54306;BME280;66145;45.188;5.712;2023-01-29T12:45:55;100202.22;;;10.84;51.17
54306;BME280;66145;45.188;5.712;2023-01-29T12:48:32;100263.16;;;11.22;51.03
54306;BME280;66145;45.188;5.712;2023-01-29T12:51:34;100261.25;;;11.22;50.96
54306;BME280;66145;45.188;5.712;2023-01-29T12:54:06;100273.97;;;11.22;50.68
54306;BME280;66145;45.188;5.712;2023-01-29T12:56:45;100254.91;;;11.17;50.93
54306;BME280;66145;45.188;5.712;2023-01-29T12:59:18;100212.34;;;10.88;50.63
54306;BME280;66145;45.188;5.712;2023-01-29T13:01:53;100248.19;;;11.19;50.53
54306;BME280;66145;45.188;5.712;2023-01-29T13:04:36;100233.97;;;11.12;50.41
54306;BME280;66145;45.188;5.712;2023-01-29T13:07:15;100219.13;;;11.03;50.63
54306;BME280;66145;45.188;5.712;2023-01-29T13:09:46;100220.63;;;11.10;50.90
54306;BME280;66145;45.188;5.712;2023-01-29T13:12:19;100209.00;;;11.10;50.77
54306;BME280;66145;45.188;5.712;2023-01-29T13:15:02;100227.34;;;11.20;50.28
54306;BME280;66145;45.188;5.712;2023-01-29T13:17:43;100155.41;;;10.71;50.79
54306;BME280;66145;45.188;5.712;2023-01-29T13:20:16;100182.19;;;10.97;50.91
54306;BME280;66145;45.188;5.712;2023-01-29T13:22:43;100162.81;;;10.88;50.54
54306;BME280;66145;45.188;5.712;2023-01-29T13:25:20;100211.09;;;11.20;50.59
54306;BME280;66145;45.188;5.712;2023-01-29T13:27:46;100156.78;;;10.86;50.29
54306;BME280;66145;45.188;5.712;2023-01-29T13:32:53;100212.50;;;11.22;50.90
54306;BME280;66145;45.188;5.712;2023-01-29T13:35:41;100193.94;;;11.14;50.81
54306;BME280;66145;45.188;5.712;2023-01-29T13:38:23;100168.16;;;11.00;50.96
54306;BME280;66145;45.188;5.712;2023-01-29T13:40:53;100194.41;;;11.11;50.76
54306;BME280;66145;45.188;5.712;2023-01-29T13:43:21;100198.84;;;11.17;50.77
54306;BME280;66145;45.188;5.712;2023-01-29T13:45:50;100194.63;;;11.09;50.31
54306;BME280;66145;45.188;5.712;2023-01-29T13:50:42;100165.44;;;11.00;50.23
54306;BME280;66145;45.188;5.712;2023-01-29T13:53:39;100165.81;;;11.03;50.47
54306;BME280;66145;45.188;5.712;2023-01-29T13:56:44;100193.53;;;11.22;50.95
54306;BME280;66145;45.188;5.712;2023-01-29T13:59:21;100193.53;;;11.22;50.46
54306;BME280;66145;45.188;5.712;2023-01-29T14:06:50;100181.31;;;11.20;50.52
54306;BME280;66145;45.188;5.712;2023-01-29T14:17:21;100173.81;;;11.10;50.41
54306;BME280;66145;45.188;5.712;2023-01-29T14:19:52;100152.28;;;11.03;50.47
54306;BME280;66145;45.188;5.712;2023-01-29T14:22:21;100146.03;;;11.03;50.54
54306;BME280;66145;45.188;5.712;2023-01-29T14:24:48;100150.03;;;11.00;51.26
54306;BME280;66145;45.188;5.712;2023-01-29T14:27:21;100160.25;;;11.10;51.00
54306;BME280;66145;45.188;5.712;2023-01-29T14:29:47;100158.75;;;11.02;50.57
54306;BME280;66145;45.188;5.712;2023-01-29T14:32:22;100174.84;;;11.21;50.96
54306;BME280;66145;45.188;5.712;2023-01-29T14:34:54;100164.84;;;11.09;50.93
54306;BME280;66145;45.188;5.712;2023-01-29T14:37:37;100173.41;;;11.18;50.79
54306;BME280;66145;45.188;5.712;2023-01-29T14:43:01;100185.41;;;11.22;51.08
54306;BME280;66145;45.188;5.712;2023-01-29T14:45:36;100182.97;;;11.21;50.35
54306;BME280;66145;45.188;5.712;2023-01-29T14:48:35;100179.06;;;11.17;50.66